Terminal Aerodrome Forecast
Issued by NWS

Home | Current Version | Previous Version | Text Only | Print | Product List | Glossary On
Versions: 1 2 3 4 5 6 7 8 9 10 11 12 13 14 15 16 17 18 19 20 21 22 23 24 25 26 27 28
447
FTUS45 KSLC 181846 AAA
TAFEVW
TAF AMD
KEVW 181846Z 1819/1918 26017G27KT P6SM SKC
     FM190300 16006KT P6SM SKC
     FM191500 22007KT P6SM FEW150=

USA.gov is the U.S. government's official web portal to all federal, state and local government web resources and services.